Latest Weather Observations for Coldstream

IDV60901

Issued at 9:11 am EDT Sunday 29 March 2015 (issued every 10 minutes, with the page automatically refreshed every 10 minutes)

About weather observations | Map of Melbourne area stations | Latest observations for Melbourne area | Other Formats
Station Details ID: 086383 Name: COLDSTREAM Lat: -37.72 Lon: 145.41 Height: 83.0 m
Data from the previous 72 hours. | See also: Recent months at Coldstream
Date/Time
EDT
Tmp

°C
App
Tmp
°C
Dew
Point
°C
Rel
Hum
%
Delta-T

°C
Wind Press
QNH
hPa
Press
MSL
hPa
Rain
since
9 am
mm
Dir
 
Spd
km/h
Gust
km/h
Spd
kts
Gust
kts
29/09:00am 7.4 6.8 7.3 99 0.0 CALM 0 0 0 0 1023.8 1023.7 0.2
29/08:30am 5.8 4.8 5.7 99 0.0 CALM 0 0 0 0 1023.6 1023.5 0.2
29/08:00am 5.2 4.1 5.1 99 0.0 CALM 0 0 0 0 1023.3 1023.2 0.2
29/07:30am 5.3 4.2 5.2 99 0.0 CALM 0 0 0 0 1023.0 1022.9 0.2
29/07:00am 5.5 4.5 5.4 99 0.0 CALM 0 0 0 0 1022.5 1022.4 0.2
29/06:30am 5.5 4.5 5.4 99 0.0 CALM 0 0 0 0 1021.9 1021.8 0.2
29/06:00am 5.5 4.5 5.4 99 0.0 CALM 0 0 0 0 1021.6 1021.5 0.2
29/05:30am 5.5 4.5 5.4 99 0.0 CALM 0 0 0 0 1021.4 1021.3 0.0
29/05:00am 5.2 4.1 5.1 99 0.0 CALM 0 0 0 0 1021.3 1021.2 0.0
29/04:30am 4.6 3.4 4.5 99 0.0 CALM 0 0 0 0 1021.1 1021.0 0.0
29/04:00am 4.0 2.6 3.7 98 0.1 CALM 0 0 0 0 1021.2 1021.1 0.0
29/03:30am 3.7 2.3 3.4 98 0.1 CALM 0 0 0 0 1021.5 1021.4 0.0
29/03:00am 4.1 2.7 3.8 98 0.1 CALM 0 0 0 0 1021.7 1021.6 0.0
29/02:30am 4.5 3.2 4.2 98 0.1 CALM 0 0 0 0 1022.0 1021.9 0.0
29/02:00am 4.7 3.5 4.4 98 0.1 CALM 0 0 0 0 1022.3 1022.2 0.0
29/01:30am 4.4 3.1 4.0 97 0.2 CALM 0 0 0 0 1022.5 1022.4 0.0
29/01:00am 4.8 3.6 4.4 97 0.2 CALM 0 0 0 0 1022.7 1022.6 0.0
29/12:30am 4.8 3.5 4.2 96 0.3 CALM 0 0 0 0 1022.6 1022.5 0.0
29/12:00am 5.4 4.3 5.0 97 0.2 CALM 0 0 0 0 1022.8 1022.7 0.0
 
Date/Time
EDT
Tmp

°C
App
Tmp
°C
Dew
Point
°C
Rel
Hum
%
Delta-T

°C
Wind Press
QNH
hPa
Press
MSL
hPa
Rain
since
9 am
mm
Dir
 
Spd
km/h
Gust
km/h
Spd
kts
Gust
kts
28/11:30pm 6.0 5.0 5.4 96 0.3 CALM 0 0 0 0 1022.7 1022.6 0.0
28/11:00pm 6.7 5.8 6.1 96 0.3 CALM 0 0 0 0 1022.5 1022.4 0.0
28/10:30pm 6.8 5.9 6.1 95 0.3 CALM 0 0 0 0 1022.7 1022.6 0.0
28/10:00pm 7.1 6.2 6.2 94 0.4 CALM 0 0 0 0 1022.6 1022.5 0.0
28/09:30pm 7.8 7.1 6.9 94 0.4 CALM 0 0 0 0 1022.7 1022.6 0.0
28/09:00pm 8.6 8.0 7.2 91 0.7 CALM 0 2 0 1 1022.6 1022.5 0.0
28/08:30pm 8.9 7.8 6.9 87 0.9 S 2 7 1 4 1022.6 1022.5 0.0
28/08:00pm 10.6 10.1 7.7 82 1.4 CALM 0 0 0 0 1022.3 1022.2 0.0
28/07:30pm 12.6 11.8 8.1 74 2.2 SSE 2 7 1 4 1022.2 1022.1 0.0
28/07:00pm 15.0 13.1 9.1 68 3.0 SE 9 13 5 7 1022.3 1022.2 0.0
28/06:30pm 16.4 14.1 9.1 62 3.8 SE 11 15 6 8 1022.1 1022.0 0.0
28/06:00pm 17.3 15.5 9.5 60 4.1 ESE 9 15 5 8 1022.3 1022.2 0.0
28/05:30pm 17.5 16.0 9.2 58 4.3 SE 7 11 4 6 1022.4 1022.3 0.0
28/05:00pm 17.7 16.1 8.8 56 4.6 SSE 7 17 4 9 1022.6 1022.5 0.0
28/04:30pm 17.5 15.3 9.2 58 4.3 WSW 11 17 6 9 1023.1 1023.0 0.0
28/04:00pm 17.1 15.7 9.5 61 4.0 SSW 7 13 4 7 1023.3 1023.2 0.0
28/03:30pm 16.4 15.2 10.3 67 3.2 SW 7 13 4 7 1023.5 1023.4 0.0
28/03:00pm 15.8 14.5 9.9 68 3.1 SSW 7 11 4 6 1023.9 1023.8 0.0
28/02:30pm 15.5 14.2 10.1 70 2.8 SSW 7 11 4 6 1024.2 1024.1 0.0
28/02:00pm 15.2 14.0 10.4 73 2.5 SSW 7 11 4 6 1024.6 1024.5 0.0
28/01:30pm 14.3 13.2 10.5 78 2.0 SSW 7 9 4 5 1024.9 1024.8 0.0
28/01:00pm 14.0 12.5 10.6 80 1.8 SW 9 15 5 8 1025.2 1025.1 0.0
28/12:30pm 14.1 12.4 11.1 82 1.6 WSW 11 15 6 8 1025.7 1025.6 0.0
28/12:00pm 13.9 13.4 10.9 82 1.6 WNW 4 11 2 6 1025.9 1025.8 0.0
28/11:30am 13.3 12.8 10.8 85 1.3 NNW 4 7 2 4 1025.8 1025.7 0.0
28/11:00am 13.0 13.3 10.9 87 1.1 CALM 0 6 0 3 1026.0 1025.9 0.0
28/10:30am 12.5 12.9 11.1 91 0.7 CALM 0 6 0 3 1026.2 1026.1 0.0
28/10:00am 11.6 11.8 10.5 93 0.6 CALM 0 0 0 0 1026.3 1026.2 0.0
28/09:30am 11.3 11.5 10.7 96 0.3 CALM 0 0 0 0 1026.2 1026.1 0.0
28/09:00am 11.0 11.2 10.5 97 0.3 CALM 0 0 0 0 1026.0 1025.9 1.0
28/08:30am 11.0 11.2 10.5 97 0.3 CALM 0 0 0 0 1025.8 1025.7 1.0
28/08:00am 10.9 11.1 10.4 97 0.3 CALM 0 0 0 0 1025.3 1025.2 1.0
28/07:30am 10.8 10.9 10.2 96 0.3 CALM 0 0 0 0 1025.1 1025.0 1.0
28/07:00am 10.9 11.0 10.1 95 0.4 CALM 0 0 0 0 1025.0 1024.9 0.8
28/06:30am 11.0 11.0 9.9 93 0.6 CALM 0 0 0 0 1024.7 1024.6 0.8
28/06:00am 11.1 11.2 10.0 93 0.6 CALM 0 0 0 0 1024.7 1024.6 0.6
28/05:30am 11.1 11.1 9.9 92 0.6 CALM 0 0 0 0 1024.4 1024.3 0.6
28/05:00am 11.3 11.1 10.4 94 0.5 N 2 7 1 4 1024.4 1024.3 0.6
28/04:30am 11.4 10.9 10.6 95 0.4 NW 4 9 2 5 1024.3 1024.2 0.4
28/04:00am 11.5 11.7 10.7 95 0.4 CALM 0 0 0 0 1024.2 1024.1 0.4
28/03:30am 11.6 11.9 10.8 95 0.4 CALM 0 0 0 0 1024.2 1024.1 0.4
28/03:00am 11.6 11.5 10.7 94 0.5 NNW 2 6 1 3 1024.3 1024.2 0.4
28/02:30am 11.7 11.9 10.4 92 0.7 CALM 0 0 0 0 1024.5 1024.4 0.4
28/02:00am 11.8 12.0 10.5 92 0.7 CALM 0 0 0 0 1024.6 1024.5 0.2
28/01:30am 11.9 12.1 10.5 91 0.7 CALM 0 0 0 0 1024.6 1024.5 0.2
28/01:00am 12.0 11.3 10.1 88 1.0 WNW 4 6 2 3 1024.7 1024.6 0.2
28/12:30am 12.1 11.3 9.7 85 1.2 ESE 4 6 2 3 1024.7 1024.6 0.2
28/12:00am 12.6 11.4 9.4 81 1.6 SSE 6 9 3 5 1024.9 1024.8 0.2
 
Date/Time
EDT
Tmp

°C
App
Tmp
°C
Dew
Point
°C
Rel
Hum
%
Delta-T

°C
Wind Press
QNH
hPa
Press
MSL
hPa
Rain
since
9 am
mm
Dir
 
Spd
km/h
Gust
km/h
Spd
kts
Gust
kts
27/11:30pm 13.3 12.3 9.0 75 2.2 SSW 4 9 2 5 1024.9 1024.8 0.2
27/11:00pm 14.0 10.9 9.0 72 2.5 SW 15 22 8 12 1025.0 1024.9 0.2
27/10:30pm 14.0 11.8 9.2 73 2.5 SW 11 17 6 9 1024.9 1024.8 0.2
27/10:00pm 13.7 12.4 9.2 74 2.3 SW 6 7 3 4 1024.8 1024.7 0.2
27/09:30pm 13.9 12.5 8.9 72 2.5 SSW 6 9 3 5 1024.9 1024.8 0.2
27/09:00pm 14.0 13.0 8.8 71 2.6 SSW 4 7 2 4 1024.7 1024.6 0.2
27/08:30pm 14.3 12.7 8.7 69 2.8 SSW 7 13 4 7 1024.5 1024.4 0.2
27/08:00pm 14.2 11.9 9.0 71 2.6 SSW 11 24 6 13 1024.2 1024.1 0.2
27/07:30pm 13.9 12.4 9.1 73 2.4 W 7 11 4 6 1023.8 1023.7 0.2
27/07:00pm 14.2 10.7 8.6 69 2.8 SW 17 30 9 16 1023.7 1023.6 0.2
27/06:30pm 15.1 12.8 7.6 61 3.7 SW 9 15 5 8 1023.3 1023.2 0.2
27/06:00pm 15.2 13.0 8.0 62 3.6 SW 9 15 5 8 1023.2 1023.1 0.2
27/05:30pm 15.4 11.6 7.4 59 4.0 WSW 17 24 9 13 1023.0 1022.9 0.2
27/05:00pm 16.0 13.5 8.0 59 4.0 SSW 11 17 6 9 1022.9 1022.8 0.2
27/04:30pm 15.6 11.6 8.4 62 3.7 WSW 19 28 10 15 1023.0 1022.9 0.2
27/04:00pm 13.9 9.2 9.1 73 2.4 SW 24 35 13 19 1023.3 1023.2 0.2
27/03:30pm 15.7 12.5 8.4 62 3.7 SW 15 28 8 15 1023.0 1022.9 0.2
27/03:00pm 15.6 11.4 8.1 61 3.8 SW 20 30 11 16 1023.1 1023.0 0.2
27/02:30pm 16.3 11.4 8.3 59 4.1 SW 24 35 13 19 1023.1 1023.0 0.2
27/02:00pm 15.7 11.5 8.4 62 3.7 SW 20 37 11 20 1023.4 1023.3 0.2
27/01:30pm 15.9 12.0 10.7 71 2.8 WSW 22 32 12 17 1023.5 1023.4 0.2
27/01:00pm 13.1 9.8 10.8 86 1.2 SW 19 28 10 15 1023.8 1023.7 0.2
27/12:30pm 15.5 9.9 8.7 64 3.5 WSW 28 41 15 22 1023.7 1023.6 0.0
27/12:00pm 14.9 9.2 8.4 65 3.3 W 28 44 15 24 1023.7 1023.6 0.0
27/11:30am 14.7 8.3 8.4 66 3.2 WSW 32 46 17 25 1023.7 1023.6 0.0
27/11:00am 14.8 10.0 8.7 67 3.1 WSW 24 32 13 17 1023.5 1023.4 0.0
27/10:30am 14.0 10.1 8.8 71 2.6 W 19 32 10 17 1023.5 1023.4 0.0
27/10:00am 13.6 10.3 9.5 76 2.1 W 17 26 9 14 1023.1 1023.0 0.0
27/09:30am 13.1 10.4 9.0 76 2.1 WNW 13 20 7 11 1023.1 1023.0 0.0
27/09:00am 12.9 9.5 9.0 77 2.0 W 17 32 9 17 1022.8 1022.7 1.8
27/08:30am 12.9 10.3 9.2 78 1.9 WNW 13 22 7 12 1022.4 1022.3 1.8
27/08:00am 12.6 9.6 9.1 79 1.8 WNW 15 22 8 12 1021.8 1021.7 1.8
27/07:30am 12.8 9.8 9.1 78 1.9 WNW 15 28 8 15 1021.3 1021.2 1.8
27/07:00am 12.4 9.8 9.2 81 1.6 NW 13 20 7 11 1021.1 1021.0 1.8
27/06:30am 12.6 10.3 8.9 78 1.9 WNW 11 17 6 9 1020.8 1020.7 1.8
27/06:00am 12.6 9.5 8.9 78 1.9 WNW 15 28 8 15 1020.4 1020.2 1.8
27/05:30am 12.6 9.9 8.9 78 1.9 WNW 13 20 7 11 1020.2 1020.0 1.8
27/05:00am 12.6 9.9 8.9 78 1.9 WNW 13 20 7 11 1020.1 1019.9 1.8
27/04:30am 12.7 9.6 8.8 77 2.0 WNW 15 24 8 13 1019.9 1019.7 1.8
27/04:00am 13.0 10.0 9.1 77 2.0 WNW 15 24 8 13 1019.8 1019.6 1.8
27/03:30am 12.9 10.3 9.4 79 1.8 WNW 13 24 7 13 1019.7 1019.5 1.8
27/03:00am 12.3 10.1 9.5 83 1.4 NW 11 19 6 10 1019.5 1019.3 1.8
27/02:30am 12.6 9.3 9.6 82 1.5 WNW 17 24 9 13 1019.5 1019.3 1.8
27/02:00am 13.3 9.8 8.8 74 2.3 NW 17 26 9 14 1019.4 1019.2 1.6
27/01:30am 13.2 9.7 8.9 75 2.2 WNW 17 26 9 14 1019.4 1019.2 1.6
27/01:00am 12.6 9.6 9.4 81 1.6 NW 15 20 8 11 1019.3 1019.1 1.6
27/12:30am 13.2 9.4 8.9 75 2.2 NW 19 30 10 16 1019.3 1019.1 1.4
27/12:00am 13.1 9.6 8.8 75 2.2 NW 17 26 9 14 1019.2 1019.0 1.4
 
Date/Time
EDT
Tmp

°C
App
Tmp
°C
Dew
Point
°C
Rel
Hum
%
Delta-T

°C
Wind Press
QNH
hPa
Press
MSL
hPa
Rain
since
9 am
mm
Dir
 
Spd
km/h
Gust
km/h
Spd
kts
Gust
kts
26/11:30pm 13.2 10.1 8.9 75 2.2 NW 15 26 8 14 1019.1 1018.9 1.4
26/11:00pm 13.3 9.8 8.6 73 2.4 NW 17 28 9 15 1019.1 1018.9 1.4
26/10:30pm 13.1 9.6 8.6 74 2.3 NW 17 28 9 15 1019.1 1018.9 1.4
26/10:00pm 12.9 9.3 8.2 73 2.3 NW 17 28 9 15 1019.0 1018.8 1.4
26/09:30pm 13.7 9.8 7.2 65 3.2 NW 17 30 9 16 1018.7 1018.5 1.4
26/09:00pm 12.3 9.7 7.8 74 2.2 NNW 11 17 6 9 1018.3 1018.1 1.4
26/08:30pm 13.7 8.4 6.6 62 3.4 NNW 24 43 13 23 1018.0 1017.8 1.4
26/08:00pm 14.1 8.7 6.5 60 3.7 NW 24 39 13 21 1018.0 1017.8 1.4
26/07:30pm 13.3 9.7 6.9 65 3.1 NW 15 26 8 14 1017.9 1017.7 1.2
26/07:00pm 12.9 9.2 6.5 65 3.1 WNW 15 28 8 15 1017.5 1017.3 1.0
26/06:30pm 13.9 8.3 5.5 57 4.0 NW 24 43 13 23 1017.0 1016.8 0.6
26/06:00pm 13.8 6.5 4.7 54 4.2 WNW 32 57 17 31 1016.8 1016.6 0.2
26/05:55pm 14.9 7.8 3.4 46 5.2 WNW 30 57 16 31 1016.7 1016.5 0.2
26/05:54pm 15.0 8.2 3.2 45 5.4 WNW 28 57 15 31 1016.7 1016.5 0.2
26/05:30pm 16.3 10.9 1.2 36 6.6 NNW 19 32 10 17 1016.2 1016.0 0.2
26/05:00pm 16.3 9.8 0.4 34 6.9 NNW 24 37 13 20 1016.0 1015.8 0.2
26/04:30pm 16.9 10.4 0.5 33 7.2 NNW 24 41 13 22 1016.1 1015.9 0.2
26/04:00pm 16.8 9.9 0.0 32 7.2 NW 26 41 14 22 1016.7 1016.5 0.2
26/03:30pm 18.4 11.7 1.4 32 7.7 NW 26 39 14 21 1016.7 1016.5 0.2
26/03:00pm 17.7 11.3 0.8 32 7.5 NW 24 44 13 24 1017.2 1017.0 0.2
26/02:30pm 17.8 11.7 2.5 36 7.0 NW 24 41 13 22 1017.6 1017.4 0.0
26/02:00pm 16.1 10.3 2.5 40 6.1 NW 22 33 12 18 1017.8 1017.6 0.0
26/01:30pm 15.7 10.0 2.8 42 5.8 NW 22 32 12 17 1018.0 1017.8 0.0
26/01:00pm 15.6 10.4 2.4 41 5.9 NW 19 30 10 16 1018.1 1017.9 0.0
26/12:30pm 14.5 9.4 3.0 46 5.2 NW 19 30 10 16 1018.5 1018.3 0.0
26/12:00pm 14.1 9.6 4.1 51 4.6 NW 17 26 9 14 1018.6 1018.4 0.0
26/11:30am 13.9 9.1 4.5 53 4.4 NW 19 30 10 16 1018.7 1018.5 0.0
26/11:00am 13.5 9.6 5.2 57 3.9 NW 15 22 8 12 1018.8 1018.6 0.0
26/10:30am 13.9 10.2 6.5 61 3.6 NW 15 28 8 15 1018.8 1018.6 0.0
26/10:00am 12.3 8.4 5.5 63 3.2 NW 15 24 8 13 1018.8 1018.6 0.0
26/09:30am 11.9 9.5 7.2 73 2.3 N 9 17 5 9 1018.6 1018.4 0.0

Latest Capital City Observations: Canberra | Sydney | Melbourne | Brisbane | Adelaide | Perth | Hobart | Darwin

Other Formats:

Comma delimited format used in spreadsheet applications
http://www.bom.gov.au/fwo/IDV60901/IDV60901.94864.axf

JavaScript Object Notation format (JSON) in row-major order
http://www.bom.gov.au/fwo/IDV60901/IDV60901.94864.json